AVR4816 SKNV-SKBO
Flight info
| Callsign | AVR4816 |
|---|---|
| Flight time | N/A |
| Altitude | 21000 |
| Route | NVA W16 GIR W17 ABL |
| Aircraft | A320/M-SDE1E2E3GHIM3RWXYZ/LB1 |
Departure
| Time | 2026-04-25 13:54 |
|---|---|
| Airport | Benito Salas Airport (SKNV) |
Arrival
| Time | N/A |
|---|---|
| Airport | El Dorado International Airport (SKBO) |
| Time | Latitude | Longitude | Altitude | Speed | Heading |
|---|---|---|---|---|---|
| 2026-04-25 13:24 | 2.94612 | -75.29337 | 1457 ft | 0 kts | 202° |
| 2026-04-25 13:45 | 2.94627 | -75.29332 | 1458 ft | 4 kts | 181° |
| 2026-04-25 13:46 | 2.94648 | -75.29339 | 1460 ft | 4 kts | 123° |
| 2026-04-25 13:46 | 2.94657 | -75.29363 | 1459 ft | 4 kts | 87° |
| 2026-04-25 13:46 | 2.94650 | -75.29386 | 1459 ft | 4 kts | 34° |
| 2026-04-25 13:46 | 2.94645 | -75.29389 | 1459 ft | 0 kts | 15° |
| 2026-04-25 13:48 | 2.94672 | -75.29382 | 1460 ft | 9 kts | 14° |
| 2026-04-25 13:49 | 2.94741 | -75.29378 | 1457 ft | 6 kts | 328° |
| 2026-04-25 13:49 | 2.94762 | -75.29359 | 1460 ft | 5 kts | 84° |
| 2026-04-25 13:49 | 2.94737 | -75.29353 | 1460 ft | 7 kts | 206° |
| 2026-04-25 13:49 | 2.94676 | -75.29398 | 1460 ft | 8 kts | 245° |
| 2026-04-25 13:50 | 2.94692 | -75.29435 | 1461 ft | 7 kts | 313° |
| 2026-04-25 13:50 | 2.94751 | -75.29469 | 1461 ft | 12 kts | 338° |
| 2026-04-25 13:50 | 2.94850 | -75.29451 | 1460 ft | 18 kts | 15° |
| 2026-04-25 13:50 | 2.94984 | -75.29417 | 1461 ft | 22 kts | 14° |
| 2026-04-25 13:51 | 2.95138 | -75.29379 | 1464 ft | 24 kts | 14° |
| 2026-04-25 13:51 | 2.95251 | -75.29350 | 1466 ft | 26 kts | 14° |
| 2026-04-25 13:51 | 2.95427 | -75.29306 | 1466 ft | 26 kts | 14° |
| 2026-04-25 13:51 | 2.95604 | -75.29261 | 1476 ft | 25 kts | 13° |
| 2026-04-25 13:52 | 2.95758 | -75.29224 | 1478 ft | 20 kts | 15° |
| 2026-04-25 13:52 | 2.95874 | -75.29203 | 1476 ft | 8 kts | 351° |
| 2026-04-25 13:52 | 2.95909 | -75.29206 | 1488 ft | 3 kts | 18° |
| 2026-04-25 13:52 | 2.95903 | -75.29180 | 1487 ft | 6 kts | 142° |
| 2026-04-25 13:53 | 2.95859 | -75.29188 | 1479 ft | 8 kts | 220° |
| 2026-04-25 13:53 | 2.95836 | -75.29203 | 1485 ft | 3 kts | 195° |
| 2026-04-25 13:53 | 2.95616 | -75.29258 | 1476 ft | 74 kts | 194° |
| 2026-04-25 13:53 | 2.94865 | -75.29447 | 1462 ft | 145 kts | 194° |
| 2026-04-25 13:54 | 2.93814 | -75.29718 | 1986 ft | 158 kts | 197° |
| 2026-04-25 13:54 | 2.92746 | -75.30025 | 2824 ft | 159 kts | 197° |
| 2026-04-25 13:54 | 2.91708 | -75.30331 | 3511 ft | 157 kts | 197° |
| 2026-04-25 13:54 | 2.90621 | -75.30700 | 3809 ft | 175 kts | 210° |
| 2026-04-25 13:55 | 2.89717 | -75.31582 | 4093 ft | 192 kts | 242° |
| 2026-04-25 13:55 | 2.89413 | -75.32875 | 4590 ft | 195 kts | 274° |
| 2026-04-25 13:55 | 2.89868 | -75.34141 | 5108 ft | 197 kts | 307° |
| 2026-04-25 13:55 | 2.90968 | -75.34952 | 5619 ft | 201 kts | 341° |
| 2026-04-25 13:56 | 2.92358 | -75.35020 | 6122 ft | 203 kts | 8° |
| 2026-04-25 13:56 | 2.93759 | -75.34809 | 6599 ft | 206 kts | 9° |
| 2026-04-25 13:56 | 2.95178 | -75.34307 | 6772 ft | 229 kts | 31° |
| 2026-04-25 13:56 | 2.96511 | -75.33290 | 7011 ft | 253 kts | 39° |
| 2026-04-25 13:57 | 2.97949 | -75.32136 | 7346 ft | 277 kts | 38° |
| 2026-04-25 13:57 | 2.98961 | -75.31329 | 7719 ft | 285 kts | 38° |
| 2026-04-25 13:57 | 3.01059 | -75.29656 | 8720 ft | 292 kts | 38° |
| 2026-04-25 13:57 | 3.02638 | -75.28399 | 9484 ft | 295 kts | 38° |
| 2026-04-25 13:58 | 3.04255 | -75.27114 | 10195 ft | 301 kts | 38° |
| 2026-04-25 13:58 | 3.06009 | -75.25833 | 10422 ft | 324 kts | 30° |
| 2026-04-25 13:58 | 3.08138 | -75.24906 | 10714 ft | 341 kts | 18° |
| 2026-04-25 13:58 | 3.10416 | -75.24137 | 11329 ft | 348 kts | 18° |
| 2026-04-25 13:59 | 3.12715 | -75.23345 | 12026 ft | 352 kts | 18° |
| 2026-04-25 13:59 | 3.15038 | -75.22539 | 12725 ft | 355 kts | 18° |
| 2026-04-25 13:59 | 3.17386 | -75.21723 | 13405 ft | 358 kts | 18° |
| 2026-04-25 13:59 | 3.19751 | -75.20899 | 14056 ft | 362 kts | 19° |
| 2026-04-25 14:00 | 3.21332 | -75.20348 | 14481 ft | 364 kts | 18° |
| 2026-04-25 14:00 | 3.24558 | -75.19224 | 15308 ft | 369 kts | 18° |
| 2026-04-25 14:00 | 3.26995 | -75.18379 | 15906 ft | 373 kts | 18° |
| 2026-04-25 14:00 | 3.29427 | -75.17539 | 16480 ft | 376 kts | 18° |
| 2026-04-25 14:01 | 3.31909 | -75.16683 | 17047 ft | 379 kts | 18° |
| 2026-04-25 14:01 | 3.34419 | -75.15815 | 17607 ft | 382 kts | 18° |
| 2026-04-25 14:01 | 3.36948 | -75.14938 | 18159 ft | 386 kts | 19° |
| 2026-04-25 14:01 | 3.39494 | -75.14055 | 18699 ft | 389 kts | 19° |
| 2026-04-25 14:02 | 3.42060 | -75.13164 | 19224 ft | 392 kts | 19° |
| 2026-04-25 14:02 | 3.44661 | -75.12262 | 19744 ft | 395 kts | 19° |
| 2026-04-25 14:02 | 3.47242 | -75.11367 | 20262 ft | 398 kts | 19° |
| 2026-04-25 14:02 | 3.49016 | -75.10753 | 20603 ft | 400 kts | 19° |
| 2026-04-25 14:03 | 3.52511 | -75.09546 | 21018 ft | 403 kts | 19° |
| 2026-04-25 14:03 | 3.55151 | -75.08632 | 21058 ft | 401 kts | 19° |
| 2026-04-25 14:03 | 3.57790 | -75.07716 | 21063 ft | 400 kts | 19° |
| 2026-04-25 14:03 | 3.60418 | -75.06806 | 21060 ft | 399 kts | 19° |
| 2026-04-25 14:04 | 3.63047 | -75.05896 | 21062 ft | 399 kts | 19° |
| 2026-04-25 14:04 | 3.65672 | -75.04989 | 21063 ft | 399 kts | 19° |
| 2026-04-25 14:04 | 3.68302 | -75.04077 | 21062 ft | 399 kts | 19° |
| 2026-04-25 14:04 | 3.70923 | -75.03164 | 21055 ft | 399 kts | 19° |
| 2026-04-25 14:05 | 3.73516 | -75.02263 | 21054 ft | 399 kts | 19° |
| 2026-04-25 14:05 | 3.76145 | -75.01351 | 21055 ft | 399 kts | 19° |
| 2026-04-25 14:05 | 3.78768 | -75.00441 | 21053 ft | 399 kts | 19° |
| 2026-04-25 14:05 | 3.81390 | -74.99532 | 21054 ft | 399 kts | 19° |
| 2026-04-25 14:06 | 3.84017 | -74.98623 | 21051 ft | 399 kts | 19° |
| 2026-04-25 14:06 | 3.86638 | -74.97715 | 21052 ft | 399 kts | 19° |
| 2026-04-25 14:06 | 3.89260 | -74.96811 | 21058 ft | 399 kts | 19° |
| 2026-04-25 14:06 | 3.91885 | -74.95913 | 21097 ft | 399 kts | 19° |
| 2026-04-25 14:07 | 3.94523 | -74.95015 | 21107 ft | 400 kts | 19° |
| 2026-04-25 14:07 | 3.97159 | -74.94117 | 21119 ft | 400 kts | 19° |
| 2026-04-25 14:07 | 3.99796 | -74.93216 | 21130 ft | 399 kts | 19° |
| 2026-04-25 14:07 | 4.02426 | -74.92317 | 21135 ft | 399 kts | 19° |
| 2026-04-25 14:08 | 4.05054 | -74.91419 | 21137 ft | 399 kts | 19° |
| 2026-04-25 14:08 | 4.07681 | -74.90518 | 21135 ft | 399 kts | 19° |
| 2026-04-25 14:08 | 4.10274 | -74.89626 | 21136 ft | 399 kts | 19° |
| 2026-04-25 14:08 | 4.12906 | -74.88723 | 21134 ft | 399 kts | 19° |
| 2026-04-25 14:09 | 4.15534 | -74.87822 | 21135 ft | 399 kts | 19° |
| 2026-04-25 14:09 | 4.18167 | -74.86923 | 21136 ft | 399 kts | 18° |
| 2026-04-25 14:09 | 4.20865 | -74.86280 | 21136 ft | 399 kts | 9° |
| 2026-04-25 14:09 | 4.22682 | -74.85980 | 21136 ft | 399 kts | 9° |
| 2026-04-25 14:10 | 4.26352 | -74.85378 | 21133 ft | 399 kts | 9° |
| 2026-04-25 14:10 | 4.29094 | -74.84927 | 21135 ft | 400 kts | 9° |
| 2026-04-25 14:10 | 4.31843 | -74.84474 | 21137 ft | 400 kts | 9° |
| 2026-04-25 14:10 | 4.34588 | -74.84020 | 21137 ft | 400 kts | 9° |
| 2026-04-25 14:11 | 4.37333 | -74.83566 | 21142 ft | 400 kts | 9° |
| 2026-04-25 14:11 | 4.40085 | -74.83111 | 21145 ft | 400 kts | 9° |
| 2026-04-25 14:11 | 4.42827 | -74.82656 | 21143 ft | 400 kts | 9° |
| 2026-04-25 14:11 | 4.45570 | -74.82201 | 21137 ft | 400 kts | 9° |
| 2026-04-25 14:12 | 4.48313 | -74.81748 | 21138 ft | 400 kts | 9° |
| 2026-04-25 14:12 | 4.51061 | -74.81294 | 21147 ft | 399 kts | 9° |